Time;durP1;ratioP1;P1;durP2;ratioP2;P2;SDS_P1;SDS_P2;PMS_P1;PMS_P2;Temp;Humidity;BMP_temperature;BMP_pressure;BME280_temperature;BME280_humidity;BME280_pressure;Samples;Min_cycle;Max_cycle;Signal;HPM_P1;HPM_P2
2023/05/08 00:01:28;;;;;;;6.07;3.80;;;;;;;;;;5009347;28;20474;-65
2023/05/08 00:03:55;;;;;;;6.37;4.27;;;;;;;;;;5020714;28;20450;-66
2023/05/08 00:06:22;;;;;;;6.23;3.73;;;;;;;;;;5027464;28;20452;-65
2023/05/08 00:08:48;;;;;;;6.27;3.97;;;;;;;;;;5029211;28;20513;-65
2023/05/08 00:11:15;;;;;;;7.20;4.23;;;;;;;;;;5029393;28;20434;-66
2023/05/08 00:13:41;;;;;;;10.90;4.20;;;;;;;;;;5029294;28;20948;-65
2023/05/08 00:16:10;;;;;;;6.97;3.83;;;;;;;;;;5027515;28;20791;-65
2023/05/08 00:18:37;;;;;;;7.00;3.70;;;;;;;;;;5029605;28;20518;-65
2023/05/08 00:21:04;;;;;;;6.83;4.20;;;;;;;;;;5008925;28;20474;-65
2023/05/08 00:23:32;;;;;;;8.20;4.30;;;;;;;;;;5028968;28;20513;-65
2023/05/08 00:25:58;;;;;;;9.07;3.77;;;;;;;;;;5027356;28;20454;-65
2023/05/08 00:28:26;;;;;;;7.07;4.47;;;;;;;;;;5029206;28;20532;-65
2023/05/08 00:30:53;;;;;;;8.77;4.77;;;;;;;;;;5010553;28;20548;-65
2023/05/08 00:33:19;;;;;;;10.00;3.93;;;;;;;;;;5027492;28;20549;-66
2023/05/08 00:35:46;;;;;;;8.77;4.30;;;;;;;;;;5029016;28;20486;-65
2023/05/08 00:38:18;;;;;;;9.03;4.00;;;;;;;;;;5027819;28;20460;-65
2023/05/08 00:40:45;;;;;;;9.27;4.10;;;;;;;;;;4999172;28;20439;-65
2023/05/08 00:43:12;;;;;;;8.57;4.17;;;;;;;;;;4991565;28;20960;-66
2023/05/08 00:45:38;;;;;;;9.67;4.10;;;;;;;;;;5013388;28;20798;-65
2023/05/08 00:48:05;;;;;;;9.40;4.33;;;;;;;;;;5029339;28;20438;-65
2023/05/08 00:50:32;;;;;;;10.30;4.50;;;;;;;;;;5029061;28;20431;-65
2023/05/08 00:52:59;;;;;;;8.73;4.63;;;;;;;;;;5028710;28;21034;-65
2023/05/08 00:55:26;;;;;;;8.83;4.10;;;;;;;;;;5026860;28;20552;-65
2023/05/08 00:57:53;;;;;;;8.40;4.40;;;;;;;;;;5015333;28;20469;-65
2023/05/08 01:00:20;;;;;;;10.23;4.63;;;;;;;;;;4995960;28;20423;-65
2023/05/08 01:02:47;;;;;;;9.10;5.17;;;;;;;;;;5000337;28;20861;-65
2023/05/08 01:05:14;;;;;;;13.40;5.20;;;;;;;;;;5015190;28;20437;-65
2023/05/08 01:07:41;;;;;;;8.20;4.90;;;;;;;;;;5032452;28;20429;-65
2023/05/08 01:10:08;;;;;;;9.03;4.70;;;;;;;;;;5014795;28;20442;-65
2023/05/08 01:12:41;;;;;;;7.23;4.53;;;;;;;;;;5032900;28;20434;-65
2023/05/08 01:15:10;;;;;;;10.47;5.13;;;;;;;;;;5032847;28;20430;-67
2023/05/08 01:17:43;;;;;;;9.40;5.13;;;;;;;;;;5015044;28;20430;-65
2023/05/08 01:20:13;;;;;;;9.00;4.97;;;;;;;;;;5013384;28;20504;-65
2023/05/08 01:22:56;;;;;;;10.50;5.57;;;;;;;;;;5031996;28;20574;-65
2023/05/08 01:25:42;;;;;;;11.27;4.93;;;;;;;;;;5032275;28;20445;-65
2023/05/08 01:28:19;;;;;;;10.33;5.60;;;;;;;;;;5032137;28;20426;-65
2023/05/08 01:31:05;;;;;;;11.13;5.47;;;;;;;;;;4998437;28;20438;-65
2023/05/08 01:33:44;;;;;;;9.60;5.30;;;;;;;;;;5032641;28;20437;-65
2023/05/08 01:36:31;;;;;;;9.40;5.23;;;;;;;;;;5039964;28;20871;-65
2023/05/08 01:39:13;;;;;;;12.33;5.73;;;;;;;;;;5033555;28;20800;-65
2023/05/08 01:41:44;;;;;;;9.30;5.60;;;;;;;;;;5029458;28;20478;-65
2023/05/08 02:16:06;;;;;;;15.73;6.73;;;;;;;;;;5011668;28;20445;-65
2023/05/08 02:18:37;;;;;;;18.10;6.97;;;;;;;;;;5040736;28;20491;-65
2023/05/08 02:21:03;;;;;;;15.90;7.70;;;;;;;;;;5030988;28;20437;-65
2023/05/08 02:23:30;;;;;;;19.60;8.00;;;;;;;;;;5011627;28;20474;-65
2023/05/08 02:25:57;;;;;;;12.20;7.20;;;;;;;;;;5044110;28;20449;-65
2023/05/08 02:28:24;;;;;;;19.77;7.67;;;;;;;;;;5029973;28;20450;-65
2023/05/08 02:30:51;;;;;;;16.77;7.80;;;;;;;;;;5028841;28;20446;-65
2023/05/08 02:33:17;;;;;;;16.43;7.93;;;;;;;;;;5044530;28;20536;-65
2023/05/08 02:35:45;;;;;;;16.23;7.40;;;;;;;;;;5029185;28;20450;-64
2023/05/08 02:38:11;;;;;;;15.67;7.87;;;;;;;;;;5028008;28;20829;-64
2023/05/08 02:40:40;;;;;;;13.73;7.27;;;;;;;;;;5028917;28;21380;-64
2023/05/08 02:43:07;;;;;;;14.43;7.50;;;;;;;;;;5030503;28;20480;-65
2023/05/08 02:45:36;;;;;;;20.17;7.13;;;;;;;;;;5012603;28;20460;-64
2023/05/08 02:48:11;;;;;;;17.10;7.60;;;;;;;;;;4996680;28;20442;-64
2023/05/08 02:50:41;;;;;;;13.80;7.00;;;;;;;;;;5030774;28;20541;-65
2023/05/08 02:53:10;;;;;;;15.60;6.67;;;;;;;;;;5012582;28;20529;-64
2023/05/08 02:55:47;;;;;;;14.80;7.27;;;;;;;;;;5013057;28;20446;-65
2023/05/08 02:58:37;;;;;;;16.37;7.27;;;;;;;;;;4996744;28;20441;-65
2023/05/08 03:01:30;;;;;;;14.07;6.93;;;;;;;;;;5009002;28;20444;-65
2023/05/08 03:04:10;;;;;;;14.30;6.70;;;;;;;;;;5008161;28;20454;-66
2023/05/08 03:06:40;;;;;;;14.53;6.77;;;;;;;;;;4993685;28;20890;-66
2023/05/08 03:09:11;;;;;;;17.10;7.20;;;;;;;;;;5002397;28;20434;-66
2023/05/08 03:11:39;;;;;;;16.70;7.10;;;;;;;;;;4994148;28;20529;-67
2023/05/08 03:14:09;;;;;;;12.27;6.63;;;;;;;;;;5016132;28;20498;-67
2023/05/08 03:16:37;;;;;;;13.47;6.50;;;;;;;;;;5010821;28;20422;-64
2023/05/08 03:19:10;;;;;;;12.67;6.40;;;;;;;;;;5026624;28;20442;-65
2023/05/08 03:21:37;;;;;;;15.77;6.60;;;;;;;;;;5010452;28;20442;-64
2023/05/08 03:24:04;;;;;;;10.93;6.20;;;;;;;;;;5006394;28;20510;-64
2023/05/08 03:26:31;;;;;;;12.23;5.77;;;;;;;;;;5039939;28;20443;-65
2023/05/08 03:28:58;;;;;;;11.77;6.30;;;;;;;;;;5033091;28;20436;-65
2023/05/08 03:31:29;;;;;;;12.33;6.53;;;;;;;;;;5010113;28;20448;-64
2023/05/08 03:33:56;;;;;;;10.60;6.30;;;;;;;;;;5006076;28;20485;-64
2023/05/08 03:36:24;;;;;;;11.10;6.10;;;;;;;;;;5005623;28;20806;-68
2023/05/08 03:38:51;;;;;;;13.83;5.60;;;;;;;;;;5006075;28;20447;-66
2023/05/08 03:41:18;;;;;;;11.63;5.83;;;;;;;;;;5031047;28;20513;-65
2023/05/08 03:43:46;;;;;;;15.80;6.37;;;;;;;;;;5006563;28;20482;-66
2023/05/08 03:46:12;;;;;;;17.10;5.53;;;;;;;;;;4986445;28;20452;-66
2023/05/08 03:48:39;;;;;;;30.53;7.00;;;;;;;;;;4977425;28;20443;-67
2023/05/08 03:51:06;;;;;;;15.87;5.73;;;;;;;;;;4997787;28;20447;-67
2023/05/08 03:53:35;;;;;;;19.57;6.77;;;;;;;;;;5000100;28;20497;-65
2023/05/08 03:56:03;;;;;;;22.43;7.07;;;;;;;;;;5005852;28;20803;-65
2023/05/08 03:58:32;;;;;;;28.20;6.97;;;;;;;;;;5006488;28;20463;-66
2023/05/08 04:01:17;;;;;;;25.40;6.37;;;;;;;;;;5002281;28;20547;-66
2023/05/08 04:04:02;;;;;;;27.93;7.50;;;;;;;;;;5004473;28;20483;-66
2023/05/08 04:06:30;;;;;;;15.37;6.67;;;;;;;;;;4996983;28;20474;-66
2023/05/08 04:09:34;;;;;;;14.30;5.83;;;;;;;;;;5004180;28;20471;-66
2023/05/08 04:12:02;;;;;;;16.37;5.53;;;;;;;;;;5006297;28;20454;-65
2023/05/08 04:14:42;;;;;;;10.03;5.83;;;;;;;;;;5005912;28;20463;-64
2023/05/08 04:17:10;;;;;;;17.20;5.33;;;;;;;;;;5006374;28;20467;-66
2023/05/08 04:19:38;;;;;;;11.37;5.47;;;;;;;;;;5006064;28;20439;-66
2023/05/08 04:22:05;;;;;;;14.77;6.17;;;;;;;;;;5007520;28;20465;-66
2023/05/08 04:24:33;;;;;;;13.97;5.67;;;;;;;;;;5009275;28;20461;-64
2023/05/08 04:27:00;;;;;;;17.63;7.80;;;;;;;;;;4992977;28;20464;-65
2023/05/08 04:29:27;;;;;;;17.63;5.77;;;;;;;;;;5011701;28;20456;-65
2023/05/08 04:31:54;;;;;;;15.47;6.10;;;;;;;;;;4999840;28;20442;-65
2023/05/08 04:34:21;;;;;;;15.00;6.43;;;;;;;;;;5015463;28;20476;-66
2023/05/08 04:36:48;;;;;;;12.97;6.50;;;;;;;;;;5015582;28;20444;-67
2023/05/08 04:39:17;;;;;;;22.00;7.37;;;;;;;;;;5015848;28;20191;-66
2023/05/08 04:41:43;;;;;;;20.20;7.07;;;;;;;;;;5015687;28;20203;-65
2023/05/08 04:44:12;;;;;;;16.93;7.00;;;;;;;;;;5015027;28;20207;-66
2023/05/08 04:46:39;;;;;;;18.50;8.13;;;;;;;;;;5033284;28;20655;-64
2023/05/08 04:49:05;;;;;;;15.90;7.33;;;;;;;;;;5033450;28;20255;-65
2023/05/08 04:51:32;;;;;;;13.50;7.23;;;;;;;;;;5015853;28;20294;-65
2023/05/08 04:53:59;;;;;;;13.07;7.37;;;;;;;;;;5015606;28;20198;-64
2023/05/08 04:56:26;;;;;;;20.77;8.23;;;;;;;;;;5013940;28;20203;-66
2023/05/08 04:58:53;;;;;;;14.43;7.70;;;;;;;;;;5032014;28;20753;-64
2023/05/08 05:01:21;;;;;;;16.83;8.00;;;;;;;;;;5014569;28;20211;-64
2023/05/08 05:03:49;;;;;;;19.80;8.73;;;;;;;;;;5015348;28;20756;-66
2023/05/08 05:06:17;;;;;;;16.30;8.50;;;;;;;;;;5033644;28;20578;-65
2023/05/08 05:08:44;;;;;;;13.90;7.67;;;;;;;;;;5033685;28;20651;-65
2023/05/08 05:11:11;;;;;;;16.83;8.00;;;;;;;;;;5015696;28;20199;-65
2023/05/08 05:13:39;;;;;;;18.90;10.23;;;;;;;;;;5016977;28;20207;-65
2023/05/08 05:16:06;;;;;;;21.43;9.33;;;;;;;;;;5013810;28;20231;-66
2023/05/08 05:18:37;;;;;;;23.17;11.83;;;;;;;;;;5012914;28;20203;-66
2023/05/08 05:21:04;;;;;;;22.77;10.97;;;;;;;;;;5030869;28;20287;-65
2023/05/08 05:23:31;;;;;;;16.27;9.57;;;;;;;;;;5014421;28;20325;-67
2023/05/08 05:26:00;;;;;;;22.33;10.40;;;;;;;;;;5013761;28;20198;-65
2023/05/08 05:28:28;;;;;;;25.67;9.70;;;;;;;;;;5015335;28;20195;-66
2023/05/08 05:31:01;;;;;;;18.93;9.67;;;;;;;;;;5030879;28;20444;-66
2023/05/08 05:33:28;;;;;;;17.50;9.80;;;;;;;;;;5009580;28;20261;-66
2023/05/08 05:35:54;;;;;;;19.30;8.33;;;;;;;;;;5032167;28;20195;-66
2023/05/08 05:38:22;;;;;;;15.93;8.23;;;;;;;;;;5015688;28;20215;-66
2023/05/08 05:40:49;;;;;;;22.60;8.30;;;;;;;;;;5019282;28;20704;-66
2023/05/08 05:43:16;;;;;;;18.33;8.53;;;;;;;;;;5030212;28;20784;-66
2023/05/08 05:45:43;;;;;;;15.37;7.47;;;;;;;;;;5011578;28;20681;-64
2023/05/08 05:48:12;;;;;;;17.97;7.40;;;;;;;;;;5014000;28;20890;-65
2023/05/08 05:50:39;;;;;;;12.07;6.93;;;;;;;;;;5030648;28;20190;-64
2023/05/08 05:53:06;;;;;;;16.03;6.87;;;;;;;;;;5017809;28;20294;-65
2023/05/08 05:55:34;;;;;;;15.47;6.97;;;;;;;;;;5014523;28;20613;-64
2023/05/08 05:58:01;;;;;;;14.17;5.83;;;;;;;;;;5019826;28;20253;-65
2023/05/08 06:00:29;;;;;;;11.23;4.90;;;;;;;;;;5028014;28;20195;-65
2023/05/08 06:02:57;;;;;;;12.93;4.57;;;;;;;;;;5043942;28;20227;-65
2023/05/08 06:05:24;;;;;;;9.43;5.17;;;;;;;;;;5010635;28;20187;-65
2023/05/08 06:07:50;;;;;;;10.87;5.10;;;;;;;;;;5041256;28;20202;-65
2023/05/08 06:10:18;;;;;;;10.63;5.60;;;;;;;;;;5011817;28;20196;-67
2023/05/08 06:12:45;;;;;;;12.67;6.37;;;;;;;;;;5026807;28;20286;-67
2023/05/08 06:15:14;;;;;;;13.47;6.20;;;;;;;;;;5011541;28;20245;-64
2023/05/08 06:17:44;;;;;;;14.63;5.93;;;;;;;;;;5010477;28;20257;-66
2023/05/08 06:20:11;;;;;;;14.17;6.90;;;;;;;;;;5041893;28;20254;-66
2023/05/08 06:22:39;;;;;;;11.10;6.07;;;;;;;;;;5031471;28;20629;-67
2023/05/08 06:25:06;;;;;;;12.37;6.00;;;;;;;;;;5027736;28;20195;-65
2023/05/08 06:27:33;;;;;;;9.27;4.87;;;;;;;;;;5028726;28;20202;-65
2023/05/08 06:30:00;;;;;;;13.03;6.13;;;;;;;;;;5026425;28;20199;-66
2023/05/08 06:32:27;;;;;;;6.67;4.30;;;;;;;;;;5026682;28;20194;-65
2023/05/08 06:34:54;;;;;;;10.80;4.67;;;;;;;;;;5025924;28;20227;-65
2023/05/08 06:37:21;;;;;;;9.10;4.93;;;;;;;;;;5024346;28;20681;-65
2023/05/08 06:39:48;;;;;;;8.93;4.57;;;;;;;;;;5023719;28;20226;-66
2023/05/08 06:42:29;;;;;;;7.30;4.83;;;;;;;;;;5023800;28;20250;-65
2023/05/08 06:44:56;;;;;;;8.37;4.80;;;;;;;;;;5027843;28;20662;-65
2023/05/08 06:47:22;;;;;;;11.10;4.93;;;;;;;;;;5027212;28;20226;-66
2023/05/08 06:49:49;;;;;;;12.63;4.80;;;;;;;;;;5008200;28;20302;-66
2023/05/08 06:52:16;;;;;;;13.53;5.40;;;;;;;;;;5025488;28;20298;-68
2023/05/08 06:54:43;;;;;;;11.83;5.77;;;;;;;;;;5024685;28;20188;-67
2023/05/08 06:57:10;;;;;;;11.80;5.07;;;;;;;;;;5026877;28;20198;-68
2023/05/08 06:59:43;;;;;;;9.33;4.50;;;;;;;;;;5023399;28;20188;-68
2023/05/08 07:02:11;;;;;;;7.73;4.37;;;;;;;;;;5025860;28;20190;-64
2023/05/08 07:04:38;;;;;;;6.77;3.90;;;;;;;;;;5022825;28;20338;-66
2023/05/08 07:07:06;;;;;;;7.53;4.17;;;;;;;;;;5028600;28;20195;-65
2023/05/08 07:09:34;;;;;;;9.60;4.40;;;;;;;;;;5027001;28;20188;-66
2023/05/08 07:12:01;;;;;;;6.77;4.10;;;;;;;;;;5005976;28;20196;-65
2023/05/08 07:14:28;;;;;;;7.40;3.77;;;;;;;;;;5026128;28;20184;-66
2023/05/08 07:16:55;;;;;;;5.97;3.43;;;;;;;;;;5040635;28;20199;-65
2023/05/08 07:19:22;;;;;;;3.57;2.90;;;;;;;;;;5026662;28;20195;-65
2023/05/08 07:21:49;;;;;;;3.93;2.70;;;;;;;;;;5006374;28;20289;-64
2023/05/08 07:24:16;;;;;;;7.63;3.57;;;;;;;;;;5014527;28;20269;-65
2023/05/08 07:26:43;;;;;;;5.77;3.20;;;;;;;;;;5029381;28;20231;-66
2023/05/08 07:29:10;;;;;;;5.50;3.07;;;;;;;;;;5020886;28;20188;-65
2023/05/08 07:31:39;;;;;;;4.73;3.13;;;;;;;;;;5018710;28;20287;-63
2023/05/08 07:34:10;;;;;;;3.40;2.50;;;;;;;;;;5007080;28;20210;-67
2023/05/08 07:36:37;;;;;;;3.10;2.00;;;;;;;;;;5023435;28;20659;-66
2023/05/08 07:39:04;;;;;;;5.40;2.33;;;;;;;;;;5013132;28;20853;-63
2023/05/08 07:41:32;;;;;;;3.53;1.43;;;;;;;;;;4997744;28;20238;-64
2023/05/08 07:43:59;;;;;;;2.33;2.00;;;;;;;;;;5016679;28;20220;-66
2023/05/08 07:46:25;;;;;;;3.83;2.07;;;;;;;;;;5018989;28;20772;-66
2023/05/08 07:48:52;;;;;;;5.27;2.07;;;;;;;;;;5008296;28;20180;-65
2023/05/08 07:51:19;;;;;;;6.30;2.10;;;;;;;;;;4998102;28;20676;-66
2023/05/08 07:53:47;;;;;;;5.83;1.80;;;;;;;;;;5005196;28;20223;-66
2023/05/08 07:56:15;;;;;;;2.70;1.90;;;;;;;;;;4989234;28;20698;-65
2023/05/08 07:58:44;;;;;;;3.13;2.20;;;;;;;;;;4993491;28;20196;-67
2023/05/08 08:01:13;;;;;;;3.53;2.10;;;;;;;;;;5008330;28;20748;-66
2023/05/08 08:03:42;;;;;;;4.53;2.20;;;;;;;;;;5004020;28;20231;-67
2023/05/08 08:06:09;;;;;;;3.33;2.20;;;;;;;;;;5000462;28;20194;-68
2023/05/08 08:08:36;;;;;;;3.40;2.03;;;;;;;;;;5001015;28;20271;-68
2023/05/08 08:11:26;;;;;;;2.50;1.73;;;;;;;;;;5003579;28;21043;-70
2023/05/08 08:13:53;;;;;;;4.07;2.30;;;;;;;;;;4989868;28;20251;-77
2023/05/08 08:16:21;;;;;;;4.53;2.27;;;;;;;;;;5021002;28;20283;-72
2023/05/08 08:29:58;;;;;;;4.50;2.30;;;;;;;;;;4945559;29;20206;-71
2023/05/08 08:33:00;;;;;;;4.30;2.30;;;;;;;;;;4888396;29;20228;-71
2023/05/08 08:37:04;;;;;;;35.63;3.67;;;;;;;;;;4814470;29;20358;-71
2023/05/08 08:39:27;;;;;;;5.97;2.20;;;;;;;;;;4812300;29;20211;-71
2023/05/08 08:45:52;;;;;;;4.60;2.30;;;;;;;;;;4803303;29;20203;-70
2023/05/08 08:49:11;;;;;;;5.30;2.20;;;;;;;;;;4794993;29;20217;-72
2023/05/08 08:52:28;;;;;;;;;;;;;;;;;;;;;
2023/05/08 08:55:51;;;;;;;3.50;2.33;;;;;;;;;;4845187;29;20224;-71
2023/05/08 09:02:26;;;;;;;5.03;2.70;;;;;;;;;;4872525;29;20204;-69
2023/05/08 09:04:53;;;;;;;5.80;2.40;;;;;;;;;;4882300;29;20725;-67
2023/05/08 09:07:20;;;;;;;4.57;2.40;;;;;;;;;;4888706;29;20727;-67
2023/05/08 09:09:47;;;;;;;3.53;2.37;;;;;;;;;;4897145;29;20220;-64
2023/05/08 09:12:16;;;;;;;4.43;2.23;;;;;;;;;;4960713;28;20214;-63
2023/05/08 09:14:43;;;;;;;4.27;2.20;;;;;;;;;;5009243;28;20192;-65
2023/05/08 09:17:10;;;;;;;3.57;2.43;;;;;;;;;;5029989;28;20203;-63
2023/05/08 09:19:38;;;;;;;5.67;2.30;;;;;;;;;;5030715;28;20282;-64
2023/05/08 09:22:08;;;;;;;4.03;2.40;;;;;;;;;;5029463;28;20792;-64
2023/05/08 09:24:55;;;;;;;3.23;2.17;;;;;;;;;;5012862;28;20203;-66
2023/05/08 09:27:24;;;;;;;5.50;2.10;;;;;;;;;;5030350;28;20203;-66
2023/05/08 09:30:01;;;;;;;6.07;2.40;;;;;;;;;;5030069;28;20190;-65
2023/05/08 09:32:29;;;;;;;5.43;2.50;;;;;;;;;;5029314;28;20278;-66
2023/05/08 09:34:59;;;;;;;4.37;2.23;;;;;;;;;;5001948;28;20231;-65
2023/05/08 09:37:26;;;;;;;6.40;2.60;;;;;;;;;;5028880;28;20231;-64
2023/05/08 09:39:53;;;;;;;3.77;2.40;;;;;;;;;;5029809;28;20188;-65
2023/05/08 09:42:22;;;;;;;4.50;2.43;;;;;;;;;;5030387;28;20193;-65
2023/05/08 09:44:52;;;;;;;4.47;2.37;;;;;;;;;;5029681;28;20226;-65
2023/05/08 09:47:23;;;;;;;3.27;2.07;;;;;;;;;;5029931;28;20586;-65
2023/05/08 09:49:59;;;;;;;3.97;2.30;;;;;;;;;;5019461;28;20261;-64
2023/05/08 09:52:28;;;;;;;4.90;2.87;;;;;;;;;;5028857;28;20183;-65
2023/05/08 09:54:56;;;;;;;3.97;2.47;;;;;;;;;;5029537;28;20287;-65
2023/05/08 09:57:23;;;;;;;6.37;2.43;;;;;;;;;;5029219;28;20196;-64
2023/05/08 09:59:50;;;;;;;3.57;2.43;;;;;;;;;;5029186;28;20195;-66
2023/05/08 10:02:19;;;;;;;4.13;2.57;;;;;;;;;;5029616;28;20254;-65
2023/05/08 10:04:46;;;;;;;4.93;2.50;;;;;;;;;;5010301;28;20215;-65
2023/05/08 10:07:13;;;;;;;5.00;2.27;;;;;;;;;;5029438;28;20710;-66
2023/05/08 10:09:40;;;;;;;5.73;2.60;;;;;;;;;;5027158;28;20200;-67
2023/05/08 10:12:16;;;;;;;5.33;3.10;;;;;;;;;;5015607;28;20202;-68
2023/05/08 10:14:44;;;;;;;4.73;2.83;;;;;;;;;;5027972;28;20270;-65
2023/05/08 10:17:12;;;;;;;5.30;2.93;;;;;;;;;;5011159;28;20202;-65
2023/05/08 10:19:39;;;;;;;4.63;2.80;;;;;;;;;;5028424;28;20183;-66
2023/05/08 10:22:06;;;;;;;6.27;3.03;;;;;;;;;;5007263;28;20188;-63
2023/05/08 10:24:33;;;;;;;5.57;3.00;;;;;;;;;;5010475;28;20219;-63
2023/05/08 10:27:04;;;;;;;4.47;3.20;;;;;;;;;;5010827;28;20221;-66
2023/05/08 10:29:40;;;;;;;8.63;2.93;;;;;;;;;;5028482;28;20269;-64
2023/05/08 10:32:08;;;;;;;7.73;3.00;;;;;;;;;;5028147;28;20191;-65
2023/05/08 10:34:37;;;;;;;4.83;2.90;;;;;;;;;;5025097;28;20210;-68
2023/05/08 10:37:04;;;;;;;5.20;2.93;;;;;;;;;;5026863;28;20188;-65
2023/05/08 10:39:31;;;;;;;3.73;2.53;;;;;;;;;;5027213;28;20233;-68
2023/05/08 10:41:58;;;;;;;5.73;2.80;;;;;;;;;;5005235;28;20301;-68
2023/05/08 10:44:25;;;;;;;5.93;2.90;;;;;;;;;;5029263;28;20212;-67
2023/05/08 10:46:54;;;;;;;4.73;3.07;;;;;;;;;;5030104;28;20191;-68
2023/05/08 10:49:30;;;;;;;7.13;2.83;;;;;;;;;;5030008;28;20582;-67
2023/05/08 10:52:05;;;;;;;6.57;2.70;;;;;;;;;;5021084;28;20294;-68
2023/05/08 10:54:41;;;;;;;3.60;2.70;;;;;;;;;;5030741;28;20198;-68
2023/05/08 10:57:09;;;;;;;8.07;2.80;;;;;;;;;;5011177;28;20192;-67
2023/05/08 10:59:36;;;;;;;4.47;2.60;;;;;;;;;;5010926;28;20219;-68
2023/05/08 11:02:04;;;;;;;4.60;2.60;;;;;;;;;;5010868;28;20208;-68
2023/05/08 11:04:31;;;;;;;4.77;2.40;;;;;;;;;;4993339;28;20286;-68
2023/05/08 11:06:59;;;;;;;3.73;2.30;;;;;;;;;;4993577;28;20188;-67
2023/05/08 11:09:26;;;;;;;4.20;2.73;;;;;;;;;;4993573;28;20196;-67
2023/05/08 11:11:57;;;;;;;3.30;2.40;;;;;;;;;;4993422;28;20192;-67
2023/05/08 11:14:23;;;;;;;11.53;3.57;;;;;;;;;;4976486;28;20647;-68
2023/05/08 11:16:53;;;;;;;6.73;2.57;;;;;;;;;;4993030;28;20555;-68
2023/05/08 11:19:21;;;;;;;4.40;2.47;;;;;;;;;;5010641;28;20223;-67
2023/05/08 11:22:06;;;;;;;5.40;2.70;;;;;;;;;;4992625;28;20192;-67
2023/05/08 11:24:37;;;;;;;3.80;2.70;;;;;;;;;;5010724;28;20300;-68
2023/05/08 11:27:04;;;;;;;3.90;2.80;;;;;;;;;;5010521;28;20184;-67
2023/05/08 11:29:31;;;;;;;4.17;2.40;;;;;;;;;;4992811;28;20691;-68
2023/05/08 11:31:57;;;;;;;4.03;2.57;;;;;;;;;;5017396;28;20682;-67
2023/05/08 11:34:43;;;;;;;3.83;2.03;;;;;;;;;;5029816;28;20392;-67
2023/05/08 11:37:20;;;;;;;5.60;2.40;;;;;;;;;;5029736;28;20206;-67
2023/05/08 11:39:48;;;;;;;5.63;3.10;;;;;;;;;;5028737;28;20241;-68
2023/05/08 11:42:24;;;;;;;5.83;2.60;;;;;;;;;;5030348;28;20190;-67
2023/05/08 11:45:07;;;;;;;4.37;2.67;;;;;;;;;;5029515;28;20222;-67
2023/05/08 11:47:40;;;;;;;5.33;2.60;;;;;;;;;;5029825;28;20287;-68
2023/05/08 11:50:07;;;;;;;5.00;2.77;;;;;;;;;;5028199;28;20214;-68
2023/05/08 11:52:34;;;;;;;5.30;2.50;;;;;;;;;;5029469;28;20686;-68
2023/05/08 11:55:04;;;;;;;5.50;3.00;;;;;;;;;;5029885;28;20187;-67
2023/05/08 11:57:32;;;;;;;17.57;3.83;;;;;;;;;;5029990;28;20187;-67
2023/05/08 12:00:05;;;;;;;4.23;2.50;;;;;;;;;;5029639;28;20578;-67
2023/05/08 12:02:35;;;;;;;12.37;2.90;;;;;;;;;;5019965;28;20220;-65
2023/05/08 12:05:02;;;;;;;5.77;2.70;;;;;;;;;;5008533;28;20219;-67
2023/05/08 12:07:29;;;;;;;2.70;2.30;;;;;;;;;;5023493;28;20622;-67
2023/05/08 12:09:59;;;;;;;6.80;2.70;;;;;;;;;;5012525;28;20198;-67
2023/05/08 12:12:38;;;;;;;5.30;2.60;;;;;;;;;;5028870;28;20191;-68
2023/05/08 12:15:06;;;;;;;4.93;2.70;;;;;;;;;;5029214;28;20179;-67
2023/05/08 12:17:34;;;;;;;4.93;3.00;;;;;;;;;;5029575;28;20229;-68
2023/05/08 12:20:11;;;;;;;6.20;2.73;;;;;;;;;;5012435;28;20187;-67
2023/05/08 12:22:39;;;;;;;5.63;2.50;;;;;;;;;;5011703;28;20223;-67
2023/05/08 12:25:06;;;;;;;4.90;2.30;;;;;;;;;;5029202;28;20240;-67
2023/05/08 12:27:34;;;;;;;3.87;2.47;;;;;;;;;;5025257;28;20194;-67
2023/05/08 12:30:08;;;;;;;5.30;2.40;;;;;;;;;;5037427;28;20245;-68
2023/05/08 12:32:35;;;;;;;4.80;2.47;;;;;;;;;;5013441;28;20199;-68
2023/05/08 12:35:02;;;;;;;3.23;2.30;;;;;;;;;;5031180;28;20264;-67
2023/05/08 12:37:28;;;;;;;3.63;2.13;;;;;;;;;;5011559;28;20186;-68
2023/05/08 12:39:55;;;;;;;4.03;2.47;;;;;;;;;;5030032;28;20233;-68
2023/05/08 12:42:42;;;;;;;5.10;2.33;;;;;;;;;;5026082;28;20643;-68
2023/05/08 12:45:19;;;;;;;3.43;2.13;;;;;;;;;;5021208;28;20214;-70
2023/05/08 12:47:49;;;;;;;5.60;2.20;;;;;;;;;;5027063;28;20195;-69
2023/05/08 12:50:16;;;;;;;5.10;2.60;;;;;;;;;;5009144;28;20670;-67
2023/05/08 12:52:43;;;;;;;3.70;2.23;;;;;;;;;;5013617;28;20339;-67
2023/05/08 12:55:20;;;;;;;4.57;2.40;;;;;;;;;;5032354;28;20192;-68
2023/05/08 12:57:48;;;;;;;5.33;2.73;;;;;;;;;;5031182;28;20187;-66
2023/05/08 13:00:15;;;;;;;18.60;3.70;;;;;;;;;;5026601;28;20267;-67
2023/05/08 13:02:50;;;;;;;6.37;2.13;;;;;;;;;;5026560;28;20783;-67
2023/05/08 13:05:20;;;;;;;4.63;2.50;;;;;;;;;;5027978;28;20219;-68
2023/05/08 13:07:48;;;;;;;4.37;2.30;;;;;;;;;;5031799;28;20199;-67
2023/05/08 13:10:17;;;;;;;6.07;2.80;;;;;;;;;;5029038;28;20215;-66
2023/05/08 13:12:47;;;;;;;6.77;2.50;;;;;;;;;;5028729;28;20282;-66
2023/05/08 13:15:14;;;;;;;5.30;2.30;;;;;;;;;;5029812;28;20229;-67
2023/05/08 13:17:41;;;;;;;7.87;2.50;;;;;;;;;;5034256;28;20548;-67
2023/05/08 13:20:08;;;;;;;3.80;2.40;;;;;;;;;;5026923;28;20199;-66
2023/05/08 13:22:35;;;;;;;4.20;2.13;;;;;;;;;;5028002;28;20253;-66
2023/05/08 13:25:02;;;;;;;4.07;2.27;;;;;;;;;;5029076;28;20222;-67
2023/05/08 13:27:32;;;;;;;4.50;2.10;;;;;;;;;;5031719;28;20188;-65
2023/05/08 13:29:59;;;;;;;4.13;2.30;;;;;;;;;;5031997;28;20190;-65
2023/05/08 13:32:26;;;;;;;4.13;2.53;;;;;;;;;;5031220;28;20246;-66
2023/05/08 13:34:54;;;;;;;4.43;2.30;;;;;;;;;;5030582;28;20214;-65
2023/05/08 13:37:26;;;;;;;4.17;2.43;;;;;;;;;;5029718;28;20194;-65
2023/05/08 13:39:53;;;;;;;3.17;2.37;;;;;;;;;;5029792;28;20206;-65
2023/05/08 13:42:20;;;;;;;3.53;2.10;;;;;;;;;;5030013;28;20278;-65
2023/05/08 13:44:46;;;;;;;11.10;2.67;;;;;;;;;;5029785;28;20274;-65
2023/05/08 13:47:13;;;;;;;4.17;1.87;;;;;;;;;;5033045;28;21019;-65
2023/05/08 13:49:40;;;;;;;4.13;2.20;;;;;;;;;;5029704;28;20267;-66
2023/05/08 13:52:08;;;;;;;13.93;2.70;;;;;;;;;;5030113;28;20219;-65
2023/05/08 13:54:35;;;;;;;2.50;2.20;;;;;;;;;;5016647;28;21293;-66
2023/05/08 13:57:03;;;;;;;4.50;2.43;;;;;;;;;;5015145;28;20203;-67
2023/05/08 13:59:31;;;;;;;3.30;2.47;;;;;;;;;;5019267;28;20226;-63
2023/05/08 14:01:58;;;;;;;5.97;2.10;;;;;;;;;;5024312;28;20191;-64
2023/05/08 14:04:26;;;;;;;5.17;2.10;;;;;;;;;;5011135;28;20325;-64
2023/05/08 14:06:53;;;;;;;5.70;2.57;;;;;;;;;;5032154;28;20191;-63
2023/05/08 14:09:20;;;;;;;6.33;2.40;;;;;;;;;;5025452;28;20292;-64
2023/05/08 14:11:50;;;;;;;4.73;2.23;;;;;;;;;;5028318;28;20231;-63
2023/05/08 14:14:16;;;;;;;4.07;1.93;;;;;;;;;;5021848;28;20209;-63
2023/05/08 14:16:45;;;;;;;2.80;2.20;;;;;;;;;;5030141;28;20274;-64
2023/05/08 14:19:12;;;;;;;5.63;2.47;;;;;;;;;;5028492;28;20194;-64
2023/05/08 14:21:39;;;;;;;5.57;2.30;;;;;;;;;;5029123;28;20196;-64
2023/05/08 14:24:06;;;;;;;4.00;1.93;;;;;;;;;;5028729;28;20227;-63
2023/05/08 14:26:33;;;;;;;3.30;1.97;;;;;;;;;;5029913;28;20219;-63
2023/05/08 14:28:59;;;;;;;4.67;2.00;;;;;;;;;;5029220;28;20677;-66
2023/05/08 14:31:27;;;;;;;3.87;2.20;;;;;;;;;;5025750;28;20200;-62
2023/05/08 14:33:55;;;;;;;5.33;2.20;;;;;;;;;;5026432;28;20218;-63
2023/05/08 14:36:22;;;;;;;4.90;2.20;;;;;;;;;;5010461;28;20187;-62
2023/05/08 14:38:50;;;;;;;5.73;2.20;;;;;;;;;;5026300;28;20217;-62
2023/05/08 14:41:16;;;;;;;2.87;2.00;;;;;;;;;;5026948;28;20188;-64
2023/05/08 14:43:43;;;;;;;5.50;2.27;;;;;;;;;;5026989;28;20187;-64
2023/05/08 14:46:10;;;;;;;7.63;2.00;;;;;;;;;;5026330;28;20216;-64
2023/05/08 14:48:37;;;;;;;4.77;2.10;;;;;;;;;;5026960;28;20536;-65
2023/05/08 14:51:04;;;;;;;6.63;2.30;;;;;;;;;;5008596;28;20239;-66
2023/05/08 14:53:31;;;;;;;4.70;2.27;;;;;;;;;;5026049;28;20209;-66
2023/05/08 14:55:59;;;;;;;6.07;2.47;;;;;;;;;;5024233;28;20191;-67
2023/05/08 14:58:27;;;;;;;6.63;2.50;;;;;;;;;;5026885;28;20194;-66
2023/05/08 15:00:53;;;;;;;10.07;2.80;;;;;;;;;;5030224;28;20184;-65
2023/05/08 15:03:20;;;;;;;5.10;2.47;;;;;;;;;;5029936;28;20279;-65
2023/05/08 15:05:48;;;;;;;6.03;2.27;;;;;;;;;;5029719;28;20222;-65
2023/05/08 15:08:15;;;;;;;5.40;2.43;;;;;;;;;;5028459;28;20203;-65
2023/05/08 15:10:42;;;;;;;3.97;2.40;;;;;;;;;;5029922;28;20183;-65
2023/05/08 15:13:09;;;;;;;10.00;3.37;;;;;;;;;;5029657;28;20214;-65
2023/05/08 15:15:36;;;;;;;6.73;2.73;;;;;;;;;;5030330;28;20265;-65
2023/05/08 15:18:02;;;;;;;6.20;4.03;;;;;;;;;;5013473;28;20943;-65
2023/05/08 15:20:29;;;;;;;7.90;4.63;;;;;;;;;;5028178;28;20202;-65
2023/05/08 15:22:56;;;;;;;5.80;2.70;;;;;;;;;;5029294;28;20725;-65
2023/05/08 15:25:27;;;;;;;11.87;4.07;;;;;;;;;;5027143;28;20300;-65
2023/05/08 15:27:56;;;;;;;5.50;2.50;;;;;;;;;;5031832;28;20183;-65
2023/05/08 15:30:23;;;;;;;7.13;2.63;;;;;;;;;;5036650;28;20195;-65
2023/05/08 15:32:51;;;;;;;4.00;2.57;;;;;;;;;;5027716;28;20191;-65
2023/05/08 15:35:18;;;;;;;3.33;1.87;;;;;;;;;;5016088;28;21098;-65
2023/05/08 15:37:46;;;;;;;6.60;2.73;;;;;;;;;;5026329;28;20268;-66
2023/05/08 15:40:14;;;;;;;11.00;3.17;;;;;;;;;;5025205;28;20235;-65
2023/05/08 15:42:41;;;;;;;8.23;2.80;;;;;;;;;;5026013;28;20528;-65
2023/05/08 15:45:08;;;;;;;4.90;2.20;;;;;;;;;;5024381;28;20273;-65